Conakry

Airport
ICAO code: 
GUCY
Summary
ICAO Region: 
AFI
Territory: 
Location: 
Conakry,
Coordinates: 
Aerial View: 
9° 34' 36.804" N, 13° 36' 43.2" W
Metar
Observation
GUCY 011000Z 34008KT 9999 FEW015 30/24 Q1012 NOSIG
Station
Conakry / Gbessia
Date/Time
2021-12-01 10:00:00
Wind direction
340°
Wind speed
08 kts
Lowest cloud amount
few clouds
Temperature
30°C
Dew point
24°C
Humidity
70%
QNH
1012 hPa
Weather condition
n/a

Description

International airport serving Conakry, Guinea.

Climatology

Tropical Monsoon climate (Köppen climate classification Am) - monthly mean temperatures above 18°C in every month of the year and features wet and dry seasons. A tropical monsoon climate typically features less pronounced dry seasons than a tropical savanna climate and see less variance in temperatures during the course of the year. The driest month nearly always occurs at or soon after the "winter" solstice.

Runways

Designator Length Width Surface Rops
6/24 3300 45 ASP Yes/Yes
Airport map: 
Aerial View: 

SKYbrary Partners:

Safety knowledge contributed by: